Time;durP1;ratioP1;P1;durP2;ratioP2;P2;SDS_P1;SDS_P2;PMS_P1;PMS_P2;Temp;Humidity;BMP_temperature;BMP_pressure;BME280_temperature;BME280_humidity;BME280_pressure;Samples;Min_cycle;Max_cycle;Signal;HPM_P1;HPM_P2
2022/06/10 00:00:03;;;;;;;15.48;3.75;;;11.30;99.90;;;;;;5047420;28;20056;-49
2022/06/10 00:02:29;;;;;;;10.80;3.88;;;10.60;99.90;;;;;;5052564;28;20852;-48
2022/06/10 00:04:55;;;;;;;14.55;4.03;;;11.50;99.90;;;;;;5036685;28;20064;-48
2022/06/10 00:07:21;;;;;;;12.77;3.80;;;11.70;99.90;;;;;;5053430;28;20036;-50
2022/06/10 00:09:47;;;;;;;9.93;3.63;;;9.90;99.90;;;;;;5052058;28;20047;-48
2022/06/10 00:12:12;;;;;;;16.15;5.80;;;11.00;99.90;;;;;;5086892;28;20264;-49
2022/06/10 00:14:38;;;;;;;12.68;3.30;;;11.90;99.90;;;;;;5035216;28;20056;-48
2022/06/10 00:17:04;;;;;;;11.77;3.90;;;10.30;99.90;;;;;;5053767;28;20036;-51
2022/06/10 00:19:30;;;;;;;9.65;4.53;;;11.40;99.90;;;;;;5053256;28;20059;-52
2022/06/10 00:21:55;;;;;;;12.50;3.80;;;11.50;99.90;;;;;;5037096;28;20429;-50
2022/06/10 00:24:23;;;;;;;10.10;3.90;;;10.40;99.90;;;;;;5053565;28;20506;-48
2022/06/10 00:26:49;;;;;;;15.32;4.10;;;10.50;99.90;;;;;;5037012;28;20044;-50
2022/06/10 00:29:14;;;;;;;12.20;4.05;;;10.50;99.90;;;;;;5037774;28;20501;-49
2022/06/10 00:31:41;;;;;;;12.77;4.10;;;10.90;99.90;;;;;;5053755;28;20040;-52
2022/06/10 00:34:06;;;;;;;14.23;4.45;;;10.40;99.90;;;;;;5033606;28;20132;-48
2022/06/10 00:36:32;;;;;;;14.48;3.95;;;10.60;99.90;;;;;;5052226;28;20121;-53
2022/06/10 00:38:59;;;;;;;12.60;4.00;;;10.40;99.90;;;;;;5053654;28;20048;-50
2022/06/10 00:41:25;;;;;;;9.07;3.85;;;10.40;99.90;;;;;;5053395;28;20537;-49
2022/06/10 00:43:51;;;;;;;10.85;3.55;;;11.90;99.90;;;;;;5053653;28;20147;-48
2022/06/10 00:46:42;;;;;;;13.00;4.30;;;10.50;99.90;;;;;;5054615;28;20049;-49
2022/06/10 00:49:08;;;;;;;13.57;5.05;;;10.50;99.90;;;;;;5067950;28;20579;-49
2022/06/10 00:51:39;;;;;;;11.60;3.67;;;10.30;99.90;;;;;;5035523;28;20131;-47
2022/06/10 00:54:13;;;;;;;13.05;4.18;;;11.40;99.90;;;;;;5051901;28;20032;-50
2022/06/10 00:56:43;;;;;;;14.23;4.25;;;10.40;99.90;;;;;;5017588;28;20301;-49
2022/06/10 00:59:15;;;;;;;13.10;3.95;;;10.30;99.90;;;;;;5034953;28;20053;-48
2022/06/10 01:01:42;;;;;;;16.85;5.18;;;10.50;99.90;;;;;;5033587;28;20569;-51
2022/06/10 01:04:08;;;;;;;14.20;4.05;;;10.10;99.90;;;;;;5034747;28;20733;-50
2022/06/10 01:06:34;;;;;;;10.35;4.03;;;10.20;99.90;;;;;;5033366;28;20443;-51
2022/06/10 01:09:02;;;;;;;12.20;3.90;;;10.20;99.90;;;;;;5017095;28;20056;-49
2022/06/10 01:11:56;;;;;;;14.38;4.50;;;12.30;99.90;;;;;;5033624;28;20127;-50
2022/06/10 01:14:34;;;;;;;11.02;4.60;;;10.20;99.90;;;;;;5033381;28;20048;-50
2022/06/10 01:17:19;;;;;;;10.05;3.90;;;10.30;99.90;;;;;;5035441;28;20053;-46
2022/06/10 01:20:07;;;;;;;15.85;4.32;;;10.30;99.90;;;;;;4989517;28;20042;-45
2022/06/10 01:23:19;;;;;;;14.45;4.28;;;10.20;99.90;;;;;;4974210;28;20081;-44
2022/06/10 01:26:05;;;;;;;12.50;5.07;;;10.10;99.90;;;;;;4973261;28;20046;-45
2022/06/10 01:28:52;;;;;;;12.90;4.82;;;10.20;99.90;;;;;;4986909;28;20077;-47
2022/06/10 01:31:26;;;;;;;11.60;4.15;;;10.10;99.90;;;;;;4970183;28;20054;-47
2022/06/10 01:33:54;;;;;;;12.30;4.75;;;10.00;99.90;;;;;;4969955;28;20069;-44
2022/06/10 01:36:28;;;;;;;11.60;4.85;;;10.00;99.90;;;;;;4953990;28;20616;-46
2022/06/10 01:39:18;;;;;;;12.50;4.00;;;10.00;99.90;;;;;;4938512;28;20050;-44
2022/06/10 01:41:54;;;;;;;14.55;4.10;;;10.10;99.90;;;;;;4953660;28;20047;-44
2022/06/10 01:44:37;;;;;;;13.50;4.55;;;12.00;99.90;;;;;;4986648;28;20058;-48
2022/06/10 01:47:08;;;;;;;10.90;4.20;;;10.00;99.90;;;;;;4955021;28;20054;-45
2022/06/10 01:49:40;;;;;;;15.70;4.88;;;10.00;99.90;;;;;;4987238;28;20042;-44
2022/06/10 01:52:36;;;;;;;14.77;4.30;;;10.00;99.90;;;;;;4971894;28;20062;-46
2022/06/10 01:55:13;;;;;;;12.48;4.40;;;10.00;99.90;;;;;;4936292;28;20133;-47
2022/06/10 01:57:52;;;;;;;12.50;4.47;;;10.00;99.90;;;;;;5001440;28;20135;-46
2022/06/10 02:00:23;;;;;;;19.80;4.57;;;10.60;99.90;;;;;;4993982;28;20061;-45
2022/06/10 02:03:13;;;;;;;12.75;4.65;;;11.80;99.90;;;;;;5012096;28;20063;-46
2022/06/10 02:05:48;;;;;;;12.60;5.35;;;11.20;99.90;;;;;;4945039;28;20583;-46
2022/06/10 02:08:21;;;;;;;11.43;4.43;;;9.90;99.90;;;;;;4935333;28;20108;-45
2022/06/10 02:11:03;;;;;;;17.88;4.68;;;10.20;99.90;;;;;;4936325;28;20452;-46
2022/06/10 02:13:36;;;;;;;14.82;4.35;;;9.70;99.90;;;;;;4950634;28;20059;-47
2022/06/10 02:16:07;;;;;;;12.35;4.63;;;9.80;99.90;;;;;;4935584;28;20449;-46
2022/06/10 02:18:45;;;;;;;16.03;5.77;;;9.80;99.90;;;;;;4950573;28;20585;-47
2022/06/10 02:21:36;;;;;;;14.13;4.53;;;9.90;99.90;;;;;;4933394;28;20306;-43
2022/06/10 02:24:23;;;;;;;16.65;4.80;;;11.30;99.90;;;;;;4950459;28;20063;-43
2022/06/10 02:26:50;;;;;;;15.55;5.60;;;10.50;99.90;;;;;;4933651;28;20058;-43
2022/06/10 02:29:19;;;;;;;14.68;5.20;;;9.90;99.90;;;;;;4918689;28;20622;-44
2022/06/10 02:31:52;;;;;;;10.25;4.82;;;9.90;99.90;;;;;;4935378;28;20116;-45
2022/06/10 02:34:19;;;;;;;16.30;5.10;;;9.80;99.90;;;;;;4924534;28;20590;-46
2022/06/10 02:36:59;;;;;;;12.63;5.50;;;9.80;99.90;;;;;;4935222;28;20051;-44
2022/06/10 02:39:56;;;;;;;13.55;5.35;;;9.90;99.90;;;;;;4934701;28;20210;-42
2022/06/10 02:42:45;;;;;;;16.48;5.80;;;10.00;99.90;;;;;;5000912;28;20084;-43
2022/06/10 02:46:06;;;;;;;15.45;5.13;;;9.90;99.90;;;;;;5033650;28;20051;-44
2022/06/10 02:48:52;;;;;;;13.93;5.35;;;9.90;99.90;;;;;;5012216;28;20329;-44
2022/06/10 02:51:19;;;;;;;16.05;5.25;;;9.80;99.90;;;;;;5028816;28;20655;-44
2022/06/10 02:53:45;;;;;;;11.45;5.03;;;11.10;99.90;;;;;;5011652;28;20537;-43
2022/06/10 02:56:24;;;;;;;11.60;5.05;;;9.70;99.90;;;;;;5029009;28;20463;-44
2022/06/10 03:01:55;;;;;;;14.73;5.80;;;9.70;99.90;;;;;;5012616;28;20188;-45
2022/06/10 03:04:41;;;;;;;17.35;5.32;;;9.70;99.90;;;;;;5044596;28;20065;-46
2022/06/10 03:07:26;;;;;;;14.98;5.47;;;11.00;99.90;;;;;;4969137;28;20090;-43
2022/06/10 03:10:17;;;;;;;15.63;6.03;;;9.70;99.90;;;;;;4954203;28;20483;-45
2022/06/10 03:12:49;;;;;;;14.68;5.93;;;9.60;99.90;;;;;;4934486;28;20089;-44
2022/06/10 03:15:19;;;;;;;18.13;6.28;;;9.60;99.90;;;;;;4950495;28;20073;-43
2022/06/10 03:18:02;;;;;;;16.90;5.57;;;8.90;99.90;;;;;;4935559;28;20065;-47
2022/06/10 03:20:41;;;;;;;16.30;5.72;;;9.60;99.90;;;;;;4897966;29;20052;-46
2022/06/10 03:23:16;;;;;;;16.15;5.05;;;10.20;99.90;;;;;;4912809;29;20424;-45
2022/06/10 03:25:55;;;;;;;14.43;5.43;;;9.60;99.90;;;;;;4912821;29;20084;-42
2022/06/10 03:28:51;;;;;;;18.33;5.72;;;9.70;99.90;;;;;;4912900;29;20075;-42
2022/06/10 03:31:34;;;;;;;13.60;5.03;;;9.80;99.90;;;;;;4912174;29;20062;-43
2022/06/10 03:34:17;;;;;;;13.93;5.25;;;9.80;99.90;;;;;;4914818;29;20323;-43
2022/06/10 03:36:44;;;;;;;16.08;5.53;;;10.80;99.90;;;;;;4917725;29;20149;-44
2022/06/10 03:39:12;;;;;;;14.63;4.90;;;9.80;99.90;;;;;;4917050;29;20252;-44
2022/06/10 03:41:41;;;;;;;20.17;5.45;;;9.80;99.90;;;;;;4915954;29;20058;-43
2022/06/10 03:44:15;;;;;;;14.57;5.07;;;9.70;99.90;;;;;;4951353;28;20067;-43
2022/06/10 03:46:44;;;;;;;16.70;6.50;;;10.30;99.90;;;;;;4976589;28;20030;-46
2022/06/10 03:49:13;;;;;;;14.50;4.63;;;11.80;99.90;;;;;;4993787;28;20049;-43
2022/06/10 03:51:41;;;;;;;15.80;4.88;;;9.90;99.90;;;;;;5053913;28;20057;-47
2022/06/10 03:54:09;;;;;;;11.90;5.20;;;9.80;99.90;;;;;;5054219;28;20065;-42
2022/06/10 03:56:36;;;;;;;16.27;4.78;;;10.10;99.90;;;;;;5053966;28;20502;-46
2022/06/10 03:59:02;;;;;;;13.43;4.72;;;10.00;99.90;;;;;;5054174;28;20121;-42
2022/06/10 04:01:28;;;;;;;11.45;4.68;;;10.30;99.90;;;;;;5053497;28;20079;-43
2022/06/10 04:03:54;;;;;;;10.65;4.25;;;10.00;99.90;;;;;;5053220;28;20463;-43
2022/06/10 04:06:21;;;;;;;14.85;5.20;;;10.20;99.90;;;;;;5053645;28;20086;-45
2022/06/10 04:08:47;;;;;;;12.88;4.85;;;12.10;99.90;;;;;;5053387;28;20052;-42
2022/06/10 04:11:12;;;;;;;15.75;4.97;;;12.10;99.90;;;;;;5052663;28;20051;-46
2022/06/10 04:13:40;;;;;;;14.18;4.30;;;12.20;99.90;;;;;;5054282;28;20075;-45
2022/06/10 04:16:06;;;;;;;14.75;4.10;;;10.20;99.90;;;;;;5053175;28;20133;-43
2022/06/10 04:18:32;;;;;;;15.93;4.57;;;10.40;99.90;;;;;;5053849;28;20687;-42
2022/06/10 04:20:58;;;;;;;18.13;4.65;;;11.80;99.90;;;;;;5037401;28;20065;-42
2022/06/10 04:23:23;;;;;;;14.60;4.85;;;11.60;99.90;;;;;;5052828;28;20418;-43
2022/06/10 04:25:49;;;;;;;13.15;3.80;;;12.20;99.90;;;;;;5053284;28;20059;-42
2022/06/10 04:28:15;;;;;;;19.65;3.72;;;12.40;99.90;;;;;;5037101;28;20060;-44
2022/06/10 04:30:44;;;;;;;14.80;3.83;;;11.70;99.90;;;;;;5035548;28;20111;-42
2022/06/10 04:33:10;;;;;;;15.70;3.47;;;13.70;99.90;;;;;;5052037;28;20056;-43
2022/06/10 04:35:38;;;;;;;14.85;3.40;;;11.80;99.90;;;;;;5052209;28;20284;-43
2022/06/10 04:38:05;;;;;;;11.98;3.13;;;11.90;99.90;;;;;;5053117;28;20044;-45
2022/06/10 04:40:33;;;;;;;12.57;3.15;;;12.20;99.90;;;;;;5053389;28;20461;-44
2022/06/10 04:42:59;;;;;;;16.92;4.28;;;12.20;99.90;;;;;;5052335;28;20056;-43
2022/06/10 04:45:31;;;;;;;9.80;2.80;;;12.50;99.90;;;;;;5050551;28;20040;-43
2022/06/10 04:47:59;;;;;;;16.17;3.83;;;14.00;99.90;;;;;;5023129;28;20079;-42
2022/06/10 04:50:27;;;;;;;13.45;3.17;;;12.70;99.90;;;;;;5052910;28;20040;-42
2022/06/10 04:52:53;;;;;;;9.18;3.08;;;13.00;99.90;;;;;;5035978;28;20135;-43
2022/06/10 04:55:22;;;;;;;17.70;4.32;;;14.50;99.90;;;;;;5053104;28;20131;-43
2022/06/10 04:57:48;;;;;;;15.27;3.20;;;13.00;99.90;;;;;;5052717;28;20028;-43
2022/06/10 05:00:22;;;;;;;18.15;3.85;;;12.70;99.90;;;;;;5051962;28;20110;-44
2022/06/10 05:02:48;;;;;;;18.85;3.92;;;13.00;99.90;;;;;;5053018;28;20311;-42
2022/06/10 05:05:14;;;;;;;14.10;3.42;;;13.10;99.90;;;;;;5036608;28;20067;-45
2022/06/10 05:07:40;;;;;;;12.25;3.40;;;15.10;99.90;;;;;;5053906;28;20107;-42
2022/06/10 05:10:07;;;;;;;16.70;3.60;;;13.00;99.90;;;;;;5051138;28;20082;-43
2022/06/10 05:12:33;;;;;;;10.23;3.38;;;13.10;99.90;;;;;;5035185;28;20049;-42
2022/06/10 05:14:58;;;;;;;12.98;3.10;;;13.60;99.90;;;;;;5051128;28;20064;-47
2022/06/10 05:17:26;;;;;;;16.85;3.85;;;13.10;99.90;;;;;;5035676;28;20053;-43
2022/06/10 05:19:54;;;;;;;17.30;3.55;;;13.20;99.90;;;;;;5035607;28;20100;-44
2022/06/10 05:22:19;;;;;;;13.02;3.42;;;13.40;99.90;;;;;;5051095;28;20524;-42
2022/06/10 05:24:45;;;;;;;11.65;3.17;;;14.70;99.90;;;;;;5051837;28;20055;-44
2022/06/10 05:27:12;;;;;;;17.27;4.53;;;14.10;99.90;;;;;;5047032;28;20043;-42
2022/06/10 05:29:38;;;;;;;15.63;3.38;;;15.10;99.90;;;;;;5051821;28;20071;-42
2022/06/10 05:32:04;;;;;;;13.75;3.60;;;13.50;99.90;;;;;;5034750;28;20060;-42
2022/06/10 05:34:48;;;;;;;12.77;3.72;;;13.60;99.90;;;;;;5033483;28;20786;-45
2022/06/10 05:37:20;;;;;;;13.75;3.33;;;13.50;99.90;;;;;;5051257;28;20056;-42
2022/06/10 05:39:46;;;;;;;;;;;14.20;99.90;;;;;;5069091;28;20052;-43
2022/06/10 05:42:12;;;;;;;19.98;4.70;;;13.70;99.90;;;;;;5052491;28;19924;-43
2022/06/10 05:44:41;;;;;;;18.17;3.95;;;14.60;99.90;;;;;;5033850;28;20036;-45
2022/06/10 05:47:09;;;;;;;17.20;3.47;;;13.50;99.90;;;;;;5049985;28;20152;-45
2022/06/10 05:49:37;;;;;;;18.30;3.97;;;14.90;99.90;;;;;;5047261;28;20044;-45
2022/06/10 05:52:06;;;;;;;21.70;4.00;;;13.90;99.90;;;;;;5050607;28;20041;-44
2022/06/10 05:54:34;;;;;;;16.35;3.78;;;13.80;99.90;;;;;;5049981;28;20068;-45
2022/06/10 05:56:59;;;;;;;18.23;3.75;;;13.90;99.90;;;;;;5051320;28;20983;-43
2022/06/10 05:59:29;;;;;;;15.65;3.65;;;13.90;99.90;;;;;;5051398;28;20048;-43
2022/06/10 06:01:56;;;;;;;14.85;3.42;;;16.00;99.90;;;;;;5051875;28;20257;-45
2022/06/10 06:04:22;;;;;;;14.55;3.35;;;14.10;99.90;;;;;;5084563;28;20098;-44
2022/06/10 06:06:48;;;;;;;16.88;3.78;;;14.30;99.90;;;;;;5050552;28;20500;-43
2022/06/10 06:09:14;;;;;;;12.10;3.60;;;14.30;99.90;;;;;;5032673;28;20489;-47
2022/06/10 06:11:41;;;;;;;16.38;4.25;;;14.40;99.90;;;;;;5051452;28;20525;-43
2022/06/10 06:14:07;;;;;;;16.90;4.43;;;14.30;99.90;;;;;;5050490;28;20806;-45
2022/06/10 06:16:33;;;;;;;19.23;4.68;;;14.70;99.90;;;;;;5049966;28;21219;-48
2022/06/10 06:18:58;;;;;;;21.98;4.72;;;15.00;99.90;;;;;;5052124;28;20532;-44
2022/06/10 06:21:26;;;;;;;15.27;3.85;;;14.20;99.90;;;;;;5050741;28;20469;-45
2022/06/10 06:23:53;;;;;;;14.57;4.10;;;14.40;99.90;;;;;;5050821;28;20040;-44
2022/06/10 06:26:19;;;;;;;15.18;4.95;;;15.30;99.90;;;;;;5051169;28;20056;-46
2022/06/10 06:28:45;;;;;;;18.67;4.90;;;14.50;99.90;;;;;;5051290;28;20044;-45
2022/06/10 06:31:11;;;;;;;15.43;5.15;;;15.60;99.90;;;;;;5051394;28;20048;-45
2022/06/10 06:33:37;;;;;;;21.05;5.38;;;14.90;99.90;;;;;;5050222;28;20548;-45
2022/06/10 06:36:04;;;;;;;16.23;5.03;;;14.30;99.90;;;;;;5051023;28;20048;-45
2022/06/10 06:38:31;;;;;;;21.75;5.00;;;16.20;99.90;;;;;;5051045;28;20048;-47
2022/06/10 06:40:56;;;;;;;19.17;5.50;;;16.70;99.90;;;;;;5049875;28;20044;-45
2022/06/10 06:43:22;;;;;;;15.88;4.60;;;15.00;99.90;;;;;;5083868;28;20397;-42
2022/06/10 06:45:48;;;;;;;24.08;5.57;;;15.20;99.90;;;;;;5050564;28;20972;-46
2022/06/10 06:48:14;;;;;;;15.52;5.35;;;17.50;99.90;;;;;;5050534;28;20549;-46
2022/06/10 06:50:45;;;;;;;13.65;5.53;;;17.30;99.90;;;;;;5049820;28;20045;-47
2022/06/10 06:53:11;;;;;;;15.40;4.03;;;17.70;99.90;;;;;;5049902;28;20064;-47
2022/06/10 06:55:39;;;;;;;17.33;4.30;;;17.00;99.90;;;;;;5049078;28;20098;-46
2022/06/10 06:58:06;;;;;;;20.00;4.25;;;15.40;99.90;;;;;;5050218;28;20080;-46
2022/06/10 07:00:32;;;;;;;16.60;4.70;;;15.50;99.90;;;;;;5047319;28;20041;-46
2022/06/10 07:02:58;;;;;;;16.67;4.18;;;17.70;99.90;;;;;;5050075;28;20117;-44
2022/06/10 07:05:24;;;;;;;13.38;4.32;;;15.40;99.90;;;;;;5050727;28;20775;-44
2022/06/10 07:07:52;;;;;;;15.30;4.03;;;15.40;99.90;;;;;;5051197;28;20044;-45
2022/06/10 07:10:19;;;;;;;14.07;3.90;;;17.50;99.90;;;;;;5087474;28;20378;-43
2022/06/10 07:12:45;;;;;;;14.43;4.78;;;15.60;99.90;;;;;;5037090;28;20052;-44
2022/06/10 07:15:11;;;;;;;14.93;4.40;;;17.70;99.90;;;;;;5052590;28;20044;-46
2022/06/10 07:17:37;;;;;;;15.70;4.38;;;15.30;99.90;;;;;;5055441;28;20052;-45
2022/06/10 07:20:05;;;;;;;17.05;6.10;;;15.60;99.90;;;;;;5055412;28;20086;-45
2022/06/10 07:22:35;;;;;;;13.93;4.63;;;15.40;99.90;;;;;;5053361;28;20787;-47
2022/06/10 07:25:00;;;;;;;14.07;4.93;;;15.30;99.90;;;;;;5054004;28;20059;-44
2022/06/10 07:27:26;;;;;;;14.30;5.00;;;16.50;99.90;;;;;;5053323;28;20044;-47
2022/06/10 07:29:52;;;;;;;13.38;5.18;;;15.50;99.90;;;;;;5053056;28;20048;-48
2022/06/10 07:32:17;;;;;;;18.10;5.70;;;18.00;99.90;;;;;;5052997;28;20032;-44
2022/06/10 07:34:43;;;;;;;15.10;5.38;;;18.00;99.90;;;;;;5054726;28;20044;-43
2022/06/10 07:37:09;;;;;;;15.40;4.82;;;18.60;99.90;;;;;;5050287;28;20853;-43
2022/06/10 07:39:38;;;;;;;13.02;4.53;;;16.30;99.90;;;;;;5054194;28;20125;-45
2022/06/10 07:42:05;;;;;;;14.82;4.95;;;16.30;99.90;;;;;;5050741;28;20048;-45
2022/06/10 07:44:36;;;;;;;14.05;5.13;;;16.30;99.90;;;;;;5050971;28;20190;-46
2022/06/10 07:47:07;;;;;;;15.63;4.82;;;18.20;99.90;;;;;;5037838;28;20113;-46
2022/06/10 07:49:33;;;;;;;8.73;4.57;;;16.20;99.90;;;;;;5054558;28;20124;-44
2022/06/10 07:51:59;;;;;;;14.27;4.53;;;17.20;99.90;;;;;;5053870;28;20389;-44
2022/06/10 07:54:25;;;;;;;11.48;4.30;;;16.30;99.90;;;;;;5053158;28;20405;-47
2022/06/10 07:56:52;;;;;;;12.35;4.20;;;16.30;99.90;;;;;;5053331;28;20049;-48
2022/06/10 07:59:18;;;;;;;14.63;5.25;;;16.30;99.90;;;;;;5034588;28;20041;-44
2022/06/10 08:01:44;;;;;;;13.02;5.10;;;16.40;99.90;;;;;;5053489;28;20049;-45
2022/06/10 08:04:10;;;;;;;11.77;4.60;;;17.70;99.90;;;;;;5053456;28;20131;-43
2022/06/10 08:06:42;;;;;;;11.70;4.32;;;18.20;99.90;;;;;;5032899;28;20044;-46
2022/06/10 08:09:08;;;;;;;10.82;4.75;;;16.40;99.90;;;;;;5052369;28;20047;-43
2022/06/10 08:11:35;;;;;;;12.70;4.38;;;16.40;99.90;;;;;;5053295;28;20051;-45
2022/06/10 08:14:00;;;;;;;16.75;5.50;;;16.60;99.90;;;;;;5048283;28;20056;-48
2022/06/10 08:16:26;;;;;;;11.43;5.25;;;16.60;99.90;;;;;;5050849;28;20048;-47
2022/06/10 08:18:54;;;;;;;11.32;5.10;;;16.70;99.90;;;;;;5036630;28;20093;-44
2022/06/10 08:24:06;;;;;;;15.80;4.72;;;17.80;99.90;;;;;;5052305;28;20404;-47
2022/06/10 08:26:31;;;;;;;17.85;5.13;;;17.00;99.90;;;;;;5032832;28;20455;-46
2022/06/10 08:29:00;;;;;;;16.33;5.88;;;16.80;99.90;;;;;;5053502;28;20037;-46
2022/06/10 08:31:27;;;;;;;11.73;5.15;;;16.90;99.90;;;;;;5086650;28;20055;-45
2022/06/10 08:33:53;;;;;;;14.68;5.43;;;17.80;99.90;;;;;;5086726;28;20127;-47
2022/06/10 08:36:19;;;;;;;18.15;5.93;;;16.70;99.90;;;;;;5052380;28;20033;-44
2022/06/10 08:38:44;;;;;;;15.60;5.45;;;18.20;99.90;;;;;;5052204;28;20468;-47
2022/06/10 08:41:15;;;;;;;15.23;4.90;;;16.60;99.90;;;;;;5085234;28;20105;-48
2022/06/10 08:43:49;;;;;;;16.25;5.40;;;18.80;99.90;;;;;;5051120;28;20492;-44
2022/06/10 08:46:57;;;;;;;14.50;4.90;;;18.70;99.90;;;;;;5048285;28;20048;-45
2022/06/10 08:49:44;;;;;;;17.88;5.88;;;16.50;99.90;;;;;;5052487;28;20121;-44
2022/06/10 08:52:22;;;;;;;20.48;6.28;;;16.50;99.90;;;;;;5052905;28;20045;-43
2022/06/10 08:55:19;;;;;;;21.40;6.90;;;16.60;99.90;;;;;;5054477;28;20040;-47
2022/06/10 08:57:46;;;;;;;20.60;6.22;;;16.50;99.90;;;;;;5054159;28;20444;-46
2022/06/10 09:00:36;;;;;;;19.92;6.38;;;17.40;99.90;;;;;;5048265;28;20056;-46
2022/06/10 09:03:21;;;;;;;24.10;5.93;;;16.70;99.90;;;;;;5052797;28;20052;-47
2022/06/10 09:05:51;;;;;;;19.67;6.60;;;16.70;99.90;;;;;;5086760;28;20106;-46
2022/06/10 09:08:24;;;;;;;17.85;6.18;;;16.60;99.90;;;;;;5051678;28;20095;-46
2022/06/10 09:11:04;;;;;;;10.73;5.85;;;16.90;99.90;;;;;;5052880;28;20476;-46
2022/06/10 09:13:48;;;;;;;22.52;6.05;;;16.70;99.90;;;;;;5053913;28;20041;-47
2022/06/10 09:16:44;;;;;;;21.35;6.68;;;16.50;99.90;;;;;;5085692;28;20044;-43
2022/06/10 09:19:37;;;;;;;16.42;5.97;;;16.70;99.90;;;;;;5051044;28;20072;-43
2022/06/10 09:22:17;;;;;;;18.45;5.20;;;16.80;99.90;;;;;;5017834;28;20136;-46
2022/06/10 09:24:49;;;;;;;23.23;5.88;;;16.50;99.90;;;;;;5034688;28;20103;-45
2022/06/10 09:27:33;;;;;;;12.70;5.57;;;16.50;99.90;;;;;;5033220;28;20119;-44
2022/06/10 09:30:03;;;;;;;17.83;5.07;;;16.60;99.90;;;;;;5031691;28;20326;-46
2022/06/10 09:32:59;;;;;;;14.30;5.25;;;18.80;99.90;;;;;;5016223;28;20039;-47
2022/06/10 09:35:51;;;;;;;15.88;5.13;;;16.80;99.90;;;;;;5032821;28;20108;-47
2022/06/10 09:38:25;;;;;;;19.25;4.85;;;17.00;99.90;;;;;;5033336;28;20123;-48
2022/06/10 09:40:59;;;;;;;13.32;5.32;;;19.10;99.90;;;;;;5051105;28;20047;-42
2022/06/10 09:43:37;;;;;;;16.40;5.35;;;17.10;99.90;;;;;;5017569;28;20064;-43
2022/06/10 09:46:35;;;;;;;12.27;4.72;;;17.20;99.90;;;;;;5031621;28;20527;-45
2022/06/10 09:49:36;;;;;;;16.50;5.20;;;17.30;99.90;;;;;;5051198;28;20379;-46
2022/06/10 09:52:13;;;;;;;14.68;5.07;;;17.00;99.90;;;;;;5016151;28;20107;-45
2022/06/10 09:54:59;;;;;;;21.55;6.63;;;17.10;99.90;;;;;;5050557;28;20049;-47
2022/06/10 09:58:09;;;;;;;15.88;5.32;;;17.10;99.90;;;;;;5051631;28;20147;-46
2022/06/10 10:00:50;;;;;;;13.45;5.38;;;17.00;99.90;;;;;;5051136;28;20052;-45
2022/06/10 10:03:34;;;;;;;18.40;6.80;;;17.10;99.90;;;;;;5085395;28;20040;-45
2022/06/10 10:05:59;;;;;;;17.90;6.60;;;17.10;99.90;;;;;;5050018;28;20064;-48
2022/06/10 10:08:37;;;;;;;18.02;6.28;;;17.10;99.90;;;;;;5051555;28;20132;-48
2022/06/10 10:11:32;;;;;;;22.13;7.30;;;17.10;99.90;;;;;;5051009;28;20517;-44
2022/06/10 10:14:11;;;;;;;20.38;7.75;;;16.90;99.90;;;;;;5050265;28;20036;-45
2022/06/10 10:16:52;;;;;;;17.80;6.97;;;17.20;99.90;;;;;;5052453;28;20045;-44
2022/06/10 10:19:44;;;;;;;17.63;7.00;;;19.10;99.90;;;;;;5068419;28;20040;-45
2022/06/10 10:22:49;;;;;;;18.08;6.60;;;17.50;99.90;;;;;;5053017;28;20071;-48
2022/06/10 10:25:22;;;;;;;19.48;6.10;;;17.80;99.90;;;;;;5032889;28;20118;-43
2022/06/10 10:27:49;;;;;;;19.42;7.28;;;17.90;99.90;;;;;;5032431;28;20064;-43
2022/06/10 10:30:23;;;;;;;15.75;6.05;;;17.60;99.90;;;;;;5048972;28;20144;-48
2022/06/10 10:32:54;;;;;;;16.52;5.85;;;17.50;99.90;;;;;;5031424;28;20053;-46
2022/06/10 10:35:29;;;;;;;14.98;6.00;;;17.50;99.90;;;;;;5031485;28;20467;-43
2022/06/10 10:38:01;;;;;;;16.05;5.78;;;18.30;99.90;;;;;;5048286;28;20576;-43
2022/06/10 10:40:40;;;;;;;27.35;8.57;;;18.90;99.90;;;;;;5015244;28;20044;-44
2022/06/10 10:43:18;;;;;;;17.58;6.40;;;17.60;99.90;;;;;;5047218;28;20158;-44
2022/06/10 10:46:03;;;;;;;14.73;5.25;;;17.60;99.90;;;;;;5064511;28;20047;-44
2022/06/10 10:48:33;;;;;;;16.60;5.25;;;17.60;99.90;;;;;;5047585;28;20044;-43
2022/06/10 10:51:21;;;;;;;14.48;4.72;;;17.80;99.90;;;;;;5031496;28;20088;-46
2022/06/10 10:53:56;;;;;;;12.35;4.90;;;17.60;99.90;;;;;;5030622;28;20052;-42
2022/06/10 10:56:35;;;;;;;16.35;5.15;;;17.80;99.90;;;;;;5047532;28;20044;-43
2022/06/10 10:59:01;;;;;;;13.45;4.82;;;17.70;99.90;;;;;;5030824;28;20044;-48
2022/06/10 11:01:43;;;;;;;9.90;4.38;;;16.00;99.90;;;;;;5031215;28;20330;-45
2022/06/10 11:04:31;;;;;;;13.65;4.43;;;17.90;99.90;;;;;;5051334;28;20406;-43
2022/06/10 11:07:10;;;;;;;10.25;5.55;;;20.20;99.90;;;;;;5083414;28;20574;-43
2022/06/10 11:09:48;;;;;;;11.48;4.50;;;18.10;99.90;;;;;;5049719;28;20060;-43
2022/06/10 11:12:20;;;;;;;13.90;4.97;;;18.40;99.90;;;;;;5049030;28;20040;-43
2022/06/10 11:14:49;;;;;;;10.55;4.00;;;18.60;99.90;;;;;;5081960;28;20383;-44
2022/06/10 11:17:20;;;;;;;12.43;3.97;;;19.10;99.90;;;;;;5049278;28;20136;-43
2022/06/10 11:19:54;;;;;;;10.98;4.15;;;20.80;99.90;;;;;;5049472;28;20036;-43
2022/06/10 11:22:35;;;;;;;9.32;4.03;;;19.40;99.90;;;;;;5048366;28;20102;-45
2022/06/10 11:25:02;;;;;;;9.57;4.65;;;19.80;99.90;;;;;;5049955;28;20056;-43
2022/06/10 11:27:33;;;;;;;10.20;4.50;;;21.90;99.90;;;;;;5049368;28;20060;-43
2022/06/10 11:30:10;;;;;;;12.32;4.60;;;19.80;99.90;;;;;;5045842;28;20570;-43
2022/06/10 11:32:43;;;;;;;10.02;4.43;;;19.40;99.90;;;;;;5049939;28;20135;-43
2022/06/10 11:35:26;;;;;;;11.68;4.47;;;19.30;99.90;;;;;;5048821;28;20281;-43
2022/06/10 11:38:18;;;;;;;12.77;5.47;;;19.00;99.90;;;;;;5032841;28;20057;-44
2022/06/10 11:40:47;;;;;;;14.35;4.80;;;18.90;99.90;;;;;;5048921;28;20045;-44
2022/06/10 11:43:28;;;;;;;13.45;5.45;;;18.90;99.90;;;;;;5049682;28;20150;-44
2022/06/10 11:46:12;;;;;;;12.73;4.80;;;18.50;99.90;;;;;;5033751;28;20033;-43
2022/06/10 11:48:49;;;;;;;12.88;5.07;;;18.60;99.90;;;;;;5048700;28;20535;-44
2022/06/10 11:51:34;;;;;;;13.00;5.18;;;18.90;99.90;;;;;;5050466;28;20143;-45
2022/06/10 11:54:12;;;;;;;13.07;5.10;;;19.10;99.90;;;;;;5047956;28;20080;-44
2022/06/10 12:00:07;;;;;;;16.30;5.93;;;19.30;99.90;;;;;;5085662;28;20147;-44
2022/06/10 12:02:55;;;;;;;12.55;5.80;;;19.10;99.90;;;;;;5086542;28;20060;-43
2022/06/10 12:05:33;;;;;;;13.65;5.15;;;19.10;99.90;;;;;;5084820;28;20668;-43
2022/06/10 12:08:02;;;;;;;16.88;5.93;;;18.90;99.90;;;;;;5051173;28;20068;-44
2022/06/10 12:10:35;;;;;;;14.90;6.38;;;19.90;99.90;;;;;;5049956;28;20086;-45
2022/06/10 12:13:00;;;;;;;19.95;6.97;;;18.70;99.90;;;;;;5026254;28;20052;-45
2022/06/10 12:15:33;;;;;;;14.68;6.13;;;18.70;99.90;;;;;;5050634;28;20052;-42
2022/06/10 12:18:03;;;;;;;12.00;6.13;;;18.80;99.90;;;;;;5052311;28;20052;-43
2022/06/10 12:20:49;;;;;;;19.00;5.90;;;18.50;99.90;;;;;;5052570;28;20398;-43
2022/06/10 12:23:24;;;;;;;13.43;5.88;;;18.60;99.90;;;;;;5050448;28;20121;-42
2022/06/10 12:25:56;;;;;;;14.02;6.57;;;18.70;99.90;;;;;;5035204;28;20064;-43
2022/06/10 12:28:42;;;;;;;13.65;6.50;;;19.10;99.90;;;;;;5052016;28;20494;-43
2022/06/10 12:31:37;;;;;;;11.23;5.53;;;19.50;99.90;;;;;;5051643;28;20569;-44
2022/06/10 12:34:34;;;;;;;14.38;6.20;;;19.40;99.90;;;;;;5034238;28;20048;-44
2022/06/10 12:37:05;;;;;;;12.90;5.93;;;19.90;99.90;;;;;;5084999;28;20036;-45
2022/06/10 12:40:05;;;;;;;9.48;5.55;;;19.90;99.90;;;;;;5052300;28;20968;-44
2022/06/10 12:42:39;;;;;;;9.75;3.58;;;20.10;99.90;;;;;;5050433;28;20053;-43
2022/06/10 12:45:15;;;;;;;7.28;2.45;;;19.90;99.90;;;;;;5051179;28;20044;-42
2022/06/10 12:47:42;;;;;;;8.00;2.38;;;19.60;99.90;;;;;;5051274;28;20063;-44
2022/06/10 12:50:18;;;;;;;8.02;2.47;;;19.40;99.90;;;;;;5084534;28;20049;-44
2022/06/10 12:52:59;;;;;;;6.97;2.30;;;19.50;99.90;;;;;;5067026;28;20051;-44
2022/06/10 12:55:47;;;;;;;7.65;2.10;;;19.50;99.90;;;;;;5053315;28;20044;-45
2022/06/10 12:58:40;;;;;;;9.25;2.63;;;19.80;99.90;;;;;;5036848;28;20044;-43
2022/06/10 13:01:22;;;;;;;7.40;1.90;;;19.90;99.90;;;;;;5050542;28;20080;-44
2022/06/10 13:04:00;;;;;;;8.93;1.90;;;20.00;99.90;;;;;;5085981;28;20048;-43
2022/06/10 13:06:44;;;;;;;6.82;1.85;;;20.10;99.90;;;;;;5052390;28;20052;-46
2022/06/10 13:09:10;;;;;;;7.63;1.70;;;20.00;99.90;;;;;;5085502;28;20123;-44
2022/06/10 13:11:40;;;;;;;7.15;2.00;;;20.40;99.90;;;;;;5053103;28;20048;-45
2022/06/10 13:14:29;;;;;;;6.33;1.93;;;20.60;99.90;;;;;;5052594;28;21699;-43
2022/06/10 13:16:58;;;;;;;7.47;1.60;;;20.80;99.90;;;;;;5036102;28;20459;-44
2022/06/10 13:20:02;;;;;;;6.75;1.85;;;21.30;99.90;;;;;;5051208;28;20126;-45